Station: Snowtown  

  Atmospheric Gas Attenuation - ITU Rec 676-11   ----------------- dB/100km -----------------
Date Time Temp RH % AH g/m3 Dew Point Wind Direction Speed kph Gust kph Barometer mB Rainfall Since 9am 24GHz 47GHz 76GHz 122GHz 134GHz 241GHz
01/09 17:40 16.6 80 11.3 13.1 7 11 1013.1 0 25.2 29.5 49.4 130.0 130.9 452.5
01/09 17:30 16.6 82 11.58 13.5 13 20 1016.5 0 25.8 30.1 50.7 133.6 135.2 467.5
01/09 17:20 16.4 86 12 14.1 6 20 1013.1 0 26.7 30.8 52.5 138.4 141.2 488.3
01/09 17:10 17.3 80 11.78 13.8 0 0 1013.1 0 26.2 30.1 51.0 134.3 136.4 471.8
01/09 17:00 17.4 76 11.26 13.1 7 13 1015.8 0 25.1 29.3 48.8 128.6 129.3 446.9
01/09 16:50 17.5 77 11.48 13.4 9 13 1013.1 0 25.5 29.5 49.6 130.5 131.9 456.0
01/09 16:40 17.8 76 11.53 13.5 13 17 1013.1 0 25.6 29.5 49.6 130.6 132.0 456.6
01/09 16:30 18.1 75 11.59 13.6 13 19 1015.8 0 25.7 29.6 49.8 131.1 132.6 458.7
01/09 16:20 18.5 70 11.07 12.9 15 19 1013.1 0 24.6 28.5 47.2 124.4 124.6 430.7
01/09 16:10 19 68 11.08 13 17 24 1013.1 0 24.6 28.3 47.0 123.7 123.9 428.4
01/09 16:00 20 61 10.54 12.3 20 33 1015.6 0 23.4 27.3 44.4 116.7 115.5 399.1
01/09 15:50 20 67 11.58 13.7 15 19 1013.1 0 25.6 28.8 48.4 127.5 129.0 446.3
01/09 15:40 20.3 67 11.78 14 17 22 1013.1 0 26.0 29.1 49.1 129.2 131.2 453.9
01/09 15:30 20.8 63 11.41 13.5 17 22 1015.5 0 25.2 28.4 47.4 124.7 125.7 434.7
01/09 15:20 20.9 60 10.93 12.8 19 26 1013.1 0 24.2 27.5 45.3 119.1 119.0 411.4
01/09 15:10 21.3 56 10.44 12.2 22 32 1013.1 0 23.1 26.6 43.1 113.5 112.1 387.4
01/09 15:00 21.4 53 9.94 11.4 22 32 1015.4 0 22.0 25.9 41.3 108.4 105.9 365.5
01/09 14:50 21.7 54 10.3 12 22 33 1013.1 0 22.8 26.3 42.4 111.5 109.8 379.2
01/09 14:40 22.3 52 10.27 12 26 39 1013.1 0 22.7 26.1 42.0 110.3 108.5 375.1
01/09 14:30 21.9 54 10.42 12.2 26 35 1015.5 0 23.0 26.5 42.8 112.7 111.2 384.3
01/09 14:20 22.1 53 10.35 12.1 28 39 1013.1 0 22.9 26.2 42.4 111.4 109.8 379.5
01/09 14:10 22.4 51 10.13 11.8 28 39 1013.1 0 22.4 25.8 41.4 108.8 106.7 368.5
01/09 14:00 21.9 52 10.03 11.6 32 43 1015.9 0 22.2 25.9 41.4 108.7 106.3 367.3
01/09 13:50 21.7 50 9.54 10.8 35 46 1015.9 0 21.2 25.2 39.6 104.1 100.6 347.0
01/09 13:40 22.8 49 9.96 11.5 35 54 1015.8 0 22.0 25.5 40.6 106.8 104.3 360.2
01/09 13:30 21.8 48 9.21 10.3 37 48 1016.1 0 20.5 24.7 38.4 100.7 96.4 332.5
01/09 13:20 22.6 50 10.04 11.7 37 50 1013.1 0 22.2 25.6 40.9 107.6 105.3 363.7
01/09 13:10 22.5 49 9.79 11.3 39 50 1013.1 0 21.7 25.3 40.0 105.2 102.4 353.4
01/09 13:00 22.3 46 9.08 10.1 39 56 1016.4 0 20.2 24.4 37.7 98.8 94.3 325.1
01/09 12:50 22.1 46 8.98 9.9 39 56 1013.1 0 20.0 24.2 37.3 97.8 93.1 320.8
01/09 12:40 22.1 46 8.98 9.9 35 52 1013.1 0 20.0 24.2 37.3 97.8 93.1 320.8
01/09 12:30 21.9 48 9.26 10.4 35 48 1016.9 0 20.6 24.8 38.5 101.2 97.0 334.5
01/09 12:20 21.4 54 10.12 11.7 32 46 1013.1 0 22.4 26.1 41.9 110.0 107.9 372.7
01/09 12:10 19.5 57 9.57 10.8 32 48 1013.1 0 21.4 25.8 40.7 107.0 103.5 357.2
01/09 12:00 19.9 55 9.45 10.6 33 48 1017.4 0 21.1 25.6 40.3 105.7 101.9 351.4
01/09 11:50 19.6 52 8.78 9.5 37 48 1013.1 0 19.7 24.5 37.7 98.9 93.6 322.3
01/09 11:40 19.3 53 8.79 9.5 37 50 1013.1 0 19.7 24.6 37.9 99.3 94.1 324.0
01/09 11:30 18.9 53 8.59 9.1 37 50 1017.6 0 19.3 24.6 37.5 98.3 92.4 318.1
01/09 11:20 18.6 56 8.91 9.7 32 43 1013.1 0 20.0 25.0 38.6 101.4 96.4 332.1
01/09 11:10 18 57 8.75 9.4 32 48 1013.1 0 19.7 24.9 38.3 100.6 95.1 327.5
01/09 11:00 17.9 57 8.7 9.3 32 44 1018.3 0 19.6 25.1 38.4 100.7 95.0 327.1
01/09 10:50 17.8 59 8.95 9.7 28 37 1013.1 0 20.1 25.3 39.2 102.9 97.9 337.2
01/09 10:40 17.4 60 8.89 9.6 26 35 1013.1 0 20.0 25.3 39.1 102.8 97.6 336.2
01/09 10:30 17.3 60 8.84 9.5 26 39 1018.6 0 19.9 25.5 39.2 102.9 97.6 335.9
01/09 10:20 17.6 58 8.7 9.2 26 35 1013.1 0 19.6 25.0 38.3 100.6 95.0 327.0
01/09 10:10 17.9 56 8.55 9 24 39 1013.1 0 19.3 24.7 37.6 98.7 92.7 319.2
01/09 10:00 17.8 61 9.26 10.2 22 32 1018.9 0 20.8 26.0 40.6 106.7 102.3 352.7
01/09 09:50 16.2 74 10.2 11.6 26 32 1013.1 0 22.9 27.8 45.0 118.4 116.4 401.9
01/09 09:40 16.5 71 9.97 11.2 30 41 1013.1 0 22.4 27.3 43.9 115.4 112.9 389.6
01/09 09:30 15.9 70 9.48 10.4 35 46 1018.8 0 21.4 26.9 42.5 111.6 107.7 371.4
01/09 09:20 15.3 71 9.27 10.1 35 44 1013.1 0 20.9 26.5 41.7 109.6 105.3 362.8
01/09 09:10 14.9 74 9.43 10.3 30 35 1013.1 0 21.3 26.9 42.6 111.9 108.0 372.1
01/09 09:00 14.4 74 9.15 9.8 30 39 1019.5 0 20.7 26.8 42.0 110.2 105.5 363.2
01/09 08:50 13.9 73 8.75 9.1 32 43 1013.1 0.2 19.9 26.1 40.3 105.9 100.2 345.0
01/09 08:40 13.6 73 8.59 8.9 30 37 1013.1 0.2 19.6 25.9 39.9 104.6 98.5 338.9
01/09 08:30 13.2 76 8.73 9.1 30 39 1019.9 0.2 19.9 26.5 40.9 107.4 101.5 349.0
01/09 08:20 12.7 75 8.35 8.4 28 35 1013.1 0.2 19.1 25.8 39.3 103.2 96.5 331.6
01/09 08:10 12.3 76 8.25 8.2 28 37 1013.1 0.2 18.9 25.8 39.1 102.6 95.6 328.6
01/09 08:00 11.9 76 8.05 7.8 30 37 1020.1 0.2 18.5 25.8 38.8 101.7 94.0 322.8
01/09 07:50 11.5 76 7.85 7.4 30 39 1013.1 0.2 18.1 25.3 37.9 99.4 91.3 313.2
01/09 07:40 11 77 7.71 7.1 32 37 1013.1 0.2 17.8 25.2 37.6 98.5 90.0 308.7
01/09 07:30 11.4 75 7.7 7.1 32 41 1019.9 0.2 17.8 25.4 37.6 98.6 89.9 308.4
01/09 07:20 11.8 74 7.79 7.3 32 41 1013.1 0.2 17.9 25.2 37.5 98.3 90.1 309.3
01/09 07:10 11.7 74 7.74 7.2 32 41 1013.1 0.2 17.8 25.1 37.4 97.9 89.6 307.4
01/09 07:00 11.1 75 7.56 6.8 32 39 1019.7 0.2 17.5 25.2 37.2 97.4 88.4 303.0
01/09 06:50 11 76 7.61 6.9 30 37 1013.1 0.2 17.6 25.1 37.2 97.4 88.7 304.1
01/09 06:40 11 75 7.51 6.7 30 35 1013.1 0.2 17.4 24.9 36.8 96.3 87.4 299.5
01/09 06:30 11.3 74 7.55 6.8 32 39 1019.8 0.2 17.5 25.2 37.1 97.1 88.0 301.8
01/09 06:20 11.2 75 7.6 6.9 30 37 1013.1 0.2 17.6 25.0 37.0 97.1 88.3 302.8
01/09 06:10 11.3 75 7.65 7 30 37 1013.1 0.2 17.7 25.1 37.2 97.5 88.9 304.8
01/09 06:00 11.4 74 7.6 6.9 30 37 1019.8 0.2 17.6 25.2 37.2 97.5 88.6 303.8
01/09 05:50 11.3 74 7.55 6.8 30 37 1013.1 0.2 17.5 24.9 36.8 96.4 87.5 300.2
01/09 05:40 11.4 74 7.6 6.9 32 39 1013.1 0.2 17.6 25.0 36.9 96.8 88.1 302.1
01/09 05:30 11.5 74 7.64 7 32 39 1019.9 0.2 17.6 25.2 37.4 97.8 89.0 305.2
01/09 05:20 11.5 74 7.64 7 32 39 1013.1 0.2 17.6 25.0 37.1 97.1 88.5 303.5
01/09 05:10 11.3 75 7.65 7 32 39 1013.1 0.2 17.7 25.1 37.2 97.5 88.9 304.8
01/09 05:00 11.1 76 7.66 7 30 35 1019.9 0.2 17.7 25.4 37.6 98.5 89.7 307.7
01/09 04:50 11.1 76 7.66 7 28 37 1013.1 0.2 17.7 25.1 37.3 97.8 89.2 306.0
01/09 04:40 10.9 77 7.66 7 30 35 1013.1 0.2 17.7 25.2 37.4 98.1 89.5 306.8
01/09 04:30 10.8 78 7.71 7.1 28 35 1020 0.2 17.8 25.6 38.0 99.4 90.8 311.3
01/09 04:20 10.7 78 7.66 7 28 35 1013.1 0.2 17.7 25.3 37.5 98.3 89.7 307.6
01/09 04:10 10.9 78 7.76 7.2 28 35 1013.1 0.2 17.9 25.4 37.8 99.2 90.8 311.4
01/09 04:00 10.8 78 7.71 7.1 28 35 1020.4 0.2 17.8 25.6 38.0 99.5 90.8 311.4
01/09 03:50 10.6 80 7.81 7.3 26 32 1013.1 0.2 18.0 25.5 38.2 100.1 91.8 315.0
01/09 03:40 10.4 81 7.81 7.3 26 33 1013.1 0.2 18.1 25.6 38.3 100.3 92.0 315.8
01/09 03:30 10.3 82 7.85 7.4 28 33 1020.6 0.2 18.1 26.0 38.8 101.7 93.3 320.0
01/09 03:20 10.3 82 7.85 7.4 28 33 1013.1 0.2 18.1 25.7 38.5 100.9 92.7 318.1
01/09 03:10 10 84 7.9 7.4 26 32 1013.1 0.2 18.3 25.8 38.8 101.8 93.7 321.7
01/09 03:00 9.1 87 7.72 7.1 24 30 1020.9 0.2 17.9 26.1 38.9 101.8 93.0 318.8
01/09 02:50 8.7 88 7.61 6.8 22 28 1013.1 0.2 17.7 25.7 38.3 100.3 91.4 313.1
01/09 02:40 8.4 89 7.55 6.7 22 28 1013.1 0.2 17.6 25.7 38.2 100.0 90.9 311.5
01/09 02:30 8 90 7.44 6.5 22 28 1021.4 0.2 17.4 26.0 38.3 100.2 90.5 309.9
01/09 02:20 7.8 91 7.43 6.4 20 24 1013.1 0.2 17.4 25.7 38.0 99.5 90.0 308.1
01/09 02:10 8.2 90 7.54 6.7 22 26 1013.1 0.2 17.6 25.8 38.2 100.2 91.0 311.8
01/09 02:00 7.9 91 7.48 6.5 22 24 1021.9 0.2 17.5 26.1 38.5 100.8 91.2 312.4
01/09 01:50 7.6 91 7.33 6.2 22 24 1013.1 0.2 17.1 25.6 37.6 98.6 88.8 304.1
01/09 01:40 7.6 91 7.33 6.2 22 26 1013.1 0.2 17.1 25.6 37.6 98.6 88.8 304.1
01/09 01:30 7.7 91 7.38 6.3 20 24 1022.5 0.2 17.2 26.0 38.2 100.0 90.1 308.5
01/09 01:20 7.8 91 7.43 6.4 19 24 1013.1 0.2 17.4 25.7 38.0 99.5 90.0 308.1
01/09 01:10 8.5 89 7.6 6.8 22 26 1013.1 0.2 17.7 25.8 38.3 100.5 91.5 313.5

Last Refresh: 01-Sep-2026 17:50:58

Bureau of Meteorology